Time;durP1;ratioP1;P1;durP2;ratioP2;P2;SDS_P1;SDS_P2;PMS_P1;PMS_P2;Temp;Humidity;BMP_temperature;BMP_pressure;BME280_temperature;BME280_humidity;BME280_pressure;Samples;Min_cycle;Max_cycle;Signal;HPM_P1;HPM_P2
2022/07/09 00:04:18;;;;;;;1.58;0.80;;;26.90;57.10;;;;;;10999563;32;20056;-69
2022/07/09 00:10:20;;;;;;;2.37;1.37;;;26.90;57.60;;;;;;11012905;32;20037;-69
2022/07/09 00:16:22;;;;;;;2.12;1.20;;;26.90;57.70;;;;;;11012994;32;20053;-70
2022/07/09 00:22:27;;;;;;;2.00;1.12;;;26.90;57.90;;;;;;11012896;32;20030;-70
2022/07/09 00:28:29;;;;;;;1.30;0.82;;;26.90;58.20;;;;;;11012743;32;20037;-70
2022/07/09 00:34:32;;;;;;;0.73;0.60;;;26.80;58.50;;;;;;11018001;32;20031;-70
2022/07/09 00:40:34;;;;;;;1.55;1.12;;;26.80;59.00;;;;;;11020089;32;20288;-70
2022/07/09 00:46:36;;;;;;;0.93;0.70;;;26.70;59.30;;;;;;11020052;32;20342;-70
2022/07/09 00:52:39;;;;;;;1.27;1.02;;;26.60;59.70;;;;;;11020140;32;20053;-70
2022/07/09 00:58:44;;;;;;;1.10;0.90;;;26.50;60.20;;;;;;11019755;32;20433;-70
2022/07/09 01:04:46;;;;;;;0.75;0.70;;;26.50;60.30;;;;;;11019265;32;20039;-70
2022/07/09 01:10:50;;;;;;;0.57;0.35;;;26.50;60.50;;;;;;11019082;32;20014;-70
2022/07/09 01:17:00;;;;;;;1.20;0.80;;;26.40;60.80;;;;;;11019206;32;20030;-70
2022/07/09 01:23:02;;;;;;;0.93;0.75;;;26.40;60.70;;;;;;11018719;32;20053;-70
2022/07/09 01:29:04;;;;;;;0.70;0.70;;;26.30;60.80;;;;;;11020207;32;20034;-70
2022/07/09 01:35:07;;;;;;;1.40;0.57;;;26.20;61.10;;;;;;11019100;32;20026;-70
2022/07/09 01:41:10;;;;;;;0.80;0.60;;;26.00;61.30;;;;;;11019442;32;20060;-70
2022/07/09 01:47:14;;;;;;;1.25;0.47;;;26.00;61.40;;;;;;11017900;32;20042;-69
2022/07/09 01:53:16;;;;;;;0.40;0.40;;;26.00;61.90;;;;;;11004112;32;20018;-70
2022/07/09 01:59:18;;;;;;;0.20;0.20;;;26.00;62.00;;;;;;11017525;32;20060;-70
2022/07/09 02:05:21;;;;;;;0.55;0.52;;;26.00;62.10;;;;;;11018100;32;20048;-70
2022/07/09 02:11:23;;;;;;;0.40;0.40;;;26.00;62.10;;;;;;11017299;32;20390;-70
2022/07/09 02:17:25;;;;;;;1.75;0.40;;;25.90;62.00;;;;;;11016737;32;20382;-70
2022/07/09 02:23:28;;;;;;;1.70;0.43;;;25.90;62.10;;;;;;11016490;32;20023;-69
2022/07/09 02:29:36;;;;;;;0.65;0.30;;;25.90;62.00;;;;;;11015632;32;20018;-69
2022/07/09 02:35:39;;;;;;;0.60;0.40;;;25.80;61.80;;;;;;11014299;32;20330;-69
2022/07/09 02:41:41;;;;;;;0.20;0.20;;;25.70;61.90;;;;;;11013983;32;20026;-69
2022/07/09 02:47:43;;;;;;;0.28;0.28;;;25.60;62.00;;;;;;11014175;32;20436;-69
2022/07/09 02:53:46;;;;;;;1.52;0.68;;;25.50;62.00;;;;;;11013043;32;20080;-69
2022/07/09 03:00:06;;;;;;;0.30;0.30;;;25.50;61.70;;;;;;11013545;32;20031;-69
2022/07/09 03:06:08;;;;;;;0.70;0.50;;;25.30;61.80;;;;;;11013389;32;20030;-69
2022/07/09 03:12:10;;;;;;;0.50;0.50;;;25.30;61.80;;;;;;11013134;32;20049;-69
2022/07/09 03:18:34;;;;;;;2.67;0.73;;;25.30;61.40;;;;;;11013093;32;20034;-70
2022/07/09 03:24:36;;;;;;;0.52;0.52;;;25.40;61.50;;;;;;11012794;32;20065;-69
2022/07/09 03:30:47;;;;;;;0.95;0.40;;;25.40;62.00;;;;;;10606595;32;12001977;-70
2022/07/09 03:37:09;;;;;;;1.12;0.75;;;25.30;62.20;;;;;;10935196;32;20375;-70
2022/07/09 03:43:11;;;;;;;0.22;0.22;;;25.30;62.50;;;;;;10934928;32;20611;-70
2022/07/09 03:49:13;;;;;;;0.98;0.40;;;25.30;62.60;;;;;;10935530;32;20339;-69
2022/07/09 03:55:15;;;;;;;1.25;0.73;;;25.30;62.70;;;;;;10958918;32;20371;-69
2022/07/09 04:01:18;;;;;;;1.10;0.60;;;25.30;62.90;;;;;;11013420;32;20022;-70
2022/07/09 04:07:20;;;;;;;1.87;0.82;;;25.30;62.90;;;;;;10998901;32;20056;-69
2022/07/09 04:13:22;;;;;;;0.70;0.40;;;25.30;63.00;;;;;;11013197;32;20018;-69
2022/07/09 04:19:24;;;;;;;1.37;0.70;;;25.10;63.30;;;;;;11013117;32;20056;-70
2022/07/09 04:25:50;;;;;;;0.70;0.50;;;25.00;63.50;;;;;;11012954;32;20378;-69
2022/07/09 04:31:52;;;;;;;1.87;0.95;;;25.00;63.40;;;;;;10988319;27;20399;-69
2022/07/09 04:37:54;;;;;;;0.55;0.55;;;25.00;63.10;;;;;;10974638;32;20023;-69
2022/07/09 04:43:57;;;;;;;0.37;0.37;;;25.00;62.90;;;;;;10961055;32;20031;-69
2022/07/09 04:49:59;;;;;;;0.55;0.52;;;24.90;62.70;;;;;;10974780;32;20022;-69
2022/07/09 04:56:01;;;;;;;0.88;0.62;;;24.90;62.40;;;;;;10975031;32;20386;-69
2022/07/09 05:02:03;;;;;;;0.55;0.55;;;25.00;62.00;;;;;;10961026;32;20019;-69
2022/07/09 05:08:06;;;;;;;0.55;0.55;;;25.00;61.90;;;;;;10974799;32;20296;-69
2022/07/09 05:14:08;;;;;;;0.85;0.37;;;25.20;61.80;;;;;;10974102;32;20046;-69
2022/07/09 05:20:42;;;;;;;0.60;0.60;;;25.30;61.70;;;;;;10964839;32;20018;-69
2022/07/09 05:26:44;;;;;;;1.17;0.82;;;25.40;61.40;;;;;;10790999;33;20385;-69
2022/07/09 05:32:46;;;;;;;3.42;0.40;;;25.40;61.50;;;;;;10789767;33;20403;-69
2022/07/09 05:38:49;;;;;;;1.67;0.93;;;25.50;61.10;;;;;;10789153;33;20078;-69
2022/07/09 05:44:52;;;;;;;1.85;0.62;;;25.70;61.00;;;;;;10789232;33;20028;-69
2022/07/09 05:50:56;;;;;;;0.50;0.32;;;25.70;60.70;;;;;;10790016;33;20047;-69
2022/07/09 05:56:58;;;;;;;0.85;0.55;;;25.70;60.70;;;;;;10790095;33;20028;-69
2022/07/09 06:03:17;;;;;;;0.82;0.43;;;25.70;60.80;;;;;;10909319;32;20041;-69
2022/07/09 06:09:20;;;;;;;1.55;0.43;;;25.60;60.70;;;;;;10941319;32;20108;-69
2022/07/09 06:15:22;;;;;;;4.12;0.80;;;25.70;60.80;;;;;;10941264;32;20089;-69
2022/07/09 06:21:24;;;;;;;0.62;0.40;;;25.80;60.60;;;;;;10940741;32;20042;-69
2022/07/09 06:27:26;;;;;;;1.00;0.47;;;25.90;60.20;;;;;;10940743;32;20085;-69
2022/07/09 06:33:28;;;;;;;0.47;0.32;;;26.00;59.80;;;;;;10939511;32;20007;-68
2022/07/09 06:39:45;;;;;;;1.20;0.70;;;26.30;59.30;;;;;;10942045;32;20031;-69
2022/07/09 06:45:47;;;;;;;1.08;0.70;;;26.30;59.00;;;;;;10939872;32;20028;-69
2022/07/09 06:51:53;;;;;;;3.58;0.50;;;26.30;59.10;;;;;;10926978;32;20015;-69
2022/07/09 06:57:57;;;;;;;1.02;0.30;;;26.40;58.90;;;;;;10939739;32;20411;-69
2022/07/09 07:04:03;;;;;;;0.75;0.60;;;26.50;58.70;;;;;;10926069;32;20348;-68
2022/07/09 07:10:05;;;;;;;0.55;0.40;;;26.70;58.20;;;;;;10926471;32;20334;-69
2022/07/09 07:16:07;;;;;;;0.75;0.30;;;26.80;57.90;;;;;;10938954;32;20023;-68
2022/07/09 07:22:10;;;;;;;0.25;0.22;;;26.90;57.60;;;;;;10938945;32;20034;-68
2022/07/09 07:28:12;;;;;;;3.25;0.60;;;27.00;57.40;;;;;;10925114;32;20038;-69
2022/07/09 07:34:14;;;;;;;1.10;0.60;;;27.00;57.20;;;;;;10925046;32;20391;-69
2022/07/09 07:40:17;;;;;;;3.28;0.50;;;27.00;57.30;;;;;;10938624;32;20089;-69
2022/07/09 07:46:19;;;;;;;0.90;0.60;;;27.00;57.10;;;;;;10937959;32;20387;-69
2022/07/09 07:52:21;;;;;;;3.28;0.68;;;27.10;56.70;;;;;;10924159;32;20053;-69
2022/07/09 07:58:25;;;;;;;0.80;0.62;;;27.10;56.00;;;;;;10937445;32;20417;-69
2022/07/09 08:04:27;;;;;;;1.77;0.60;;;27.20;55.90;;;;;;10937115;32;20054;-69
2022/07/09 08:10:29;;;;;;;1.55;0.75;;;27.20;55.80;;;;;;10924420;32;20019;-69
2022/07/09 08:16:32;;;;;;;2.25;0.52;;;27.20;55.90;;;;;;10939056;32;20376;-69
2022/07/09 08:22:35;;;;;;;0.25;0.25;;;27.30;55.50;;;;;;10923548;32;20023;-69
2022/07/09 08:28:37;;;;;;;1.73;0.52;;;27.30;54.90;;;;;;10936790;32;20031;-69
2022/07/09 08:34:44;;;;;;;1.90;0.88;;;27.40;54.60;;;;;;10936908;32;20426;-69
2022/07/09 08:40:47;;;;;;;3.30;0.90;;;27.40;54.10;;;;;;10936785;32;20464;-69
2022/07/09 08:46:53;;;;;;;3.80;0.68;;;27.60;52.60;;;;;;10936929;32;20421;-69
2022/07/09 08:52:56;;;;;;;2.42;0.98;;;27.80;52.10;;;;;;10925101;32;20019;-69
2022/07/09 08:58:58;;;;;;;1.92;0.73;;;27.90;50.90;;;;;;10943772;32;20031;-70
2022/07/09 09:05:00;;;;;;;2.08;0.73;;;28.10;50.50;;;;;;10931384;32;20030;-68
2022/07/09 09:11:04;;;;;;;2.78;0.65;;;28.20;50.70;;;;;;10943239;32;20027;-67
2022/07/09 09:17:11;;;;;;;1.45;0.82;;;28.30;49.50;;;;;;10942983;32;20370;-68
2022/07/09 09:23:17;;;;;;;5.28;1.30;;;28.30;48.70;;;;;;10929207;32;20041;-69
2022/07/09 09:29:19;;;;;;;2.53;0.65;;;28.40;48.30;;;;;;10946744;32;20433;-69
2022/07/09 09:35:23;;;;;;;0.77;0.60;;;28.40;48.60;;;;;;10942416;32;20035;-69
2022/07/09 09:41:25;;;;;;;0.65;0.52;;;28.60;48.50;;;;;;10942860;32;20019;-69
2022/07/09 09:47:38;;;;;;;1.00;0.50;;;28.80;47.90;;;;;;10942286;32;20030;-70
2022/07/09 09:53:42;;;;;;;5.03;0.85;;;28.90;46.90;;;;;;10941801;32;20027;-70
2022/07/09 09:59:46;;;;;;;0.40;0.40;;;28.80;47.00;;;;;;10928213;32;20442;-70
2022/07/09 10:05:50;;;;;;;1.67;0.57;;;28.50;47.30;;;;;;10941546;32;20185;-70
2022/07/09 10:11:52;;;;;;;1.37;0.68;;;28.40;47.30;;;;;;10941069;32;20027;-70
2022/07/09 10:18:17;;;;;;;0.85;0.52;;;28.60;46.90;;;;;;10940783;32;20019;-70
2022/07/09 10:24:25;;;;;;;1.48;0.65;;;29.10;45.80;;;;;;10941932;32;20042;-70
2022/07/09 10:30:33;;;;;;;3.17;0.80;;;29.30;45.10;;;;;;10941846;32;20041;-69
2022/07/09 10:37:04;;;;;;;2.17;0.40;;;29.40;45.20;;;;;;10939646;32;20031;-70
2022/07/09 10:43:07;;;;;;;0.95;0.75;;;29.70;44.20;;;;;;10940277;32;20050;-70
2022/07/09 10:49:09;;;;;;;1.65;0.50;;;30.10;44.10;;;;;;10940587;32;20065;-70
2022/07/09 10:55:11;;;;;;;0.85;0.52;;;30.30;43.30;;;;;;10940101;32;20057;-69
2022/07/09 11:01:24;;;;;;;1.15;0.60;;;30.30;43.70;;;;;;10926289;32;20020;-69
2022/07/09 11:07:29;;;;;;;0.98;0.60;;;29.80;43.90;;;;;;10925589;32;20085;-69
2022/07/09 11:13:31;;;;;;;2.10;0.77;;;29.80;44.30;;;;;;10938932;32;20054;-70
2022/07/09 11:19:34;;;;;;;1.62;0.93;;;30.20;43.40;;;;;;10938995;32;20073;-68
2022/07/09 11:25:37;;;;;;;1.50;1.05;;;30.60;42.20;;;;;;10924922;32;20085;-69
2022/07/09 11:32:04;;;;;;;3.62;0.85;;;30.80;41.10;;;;;;10938491;32;20022;-69
2022/07/09 11:38:11;;;;;;;0.90;0.40;;;31.00;41.40;;;;;;10938753;32;20030;-69
2022/07/09 11:44:24;;;;;;;2.97;1.00;;;31.10;40.70;;;;;;10937906;32;20053;-69
2022/07/09 11:50:45;;;;;;;1.02;0.60;;;31.40;40.60;;;;;;10938723;32;20073;-69
2022/07/09 11:56:47;;;;;;;1.92;0.77;;;31.70;40.40;;;;;;10938590;32;20066;-70
2022/07/09 12:02:50;;;;;;;3.60;0.43;;;31.90;39.60;;;;;;10924349;32;20057;-68
2022/07/09 12:08:59;;;;;;;0.80;0.60;;;32.20;39.00;;;;;;10938181;32;20030;-69
2022/07/09 12:15:05;;;;;;;0.85;0.65;;;32.20;39.10;;;;;;10938446;32;20339;-68
2022/07/09 12:21:07;;;;;;;1.87;0.80;;;32.10;39.30;;;;;;10937388;32;20077;-70
2022/07/09 12:27:11;;;;;;;1.98;0.55;;;32.30;38.60;;;;;;10939938;32;20038;-69
2022/07/09 12:33:13;;;;;;;1.62;0.60;;;32.30;38.10;;;;;;11010127;27;20042;-70
2022/07/09 12:39:16;;;;;;;1.37;0.60;;;32.30;37.90;;;;;;11006703;32;20045;-68
2022/07/09 12:45:18;;;;;;;3.37;0.80;;;32.40;37.70;;;;;;11006245;32;20029;-68
2022/07/09 12:51:21;;;;;;;3.03;0.70;;;32.40;37.50;;;;;;11019753;32;20052;-68
2022/07/09 12:57:23;;;;;;;6.43;0.70;;;32.40;37.10;;;;;;11020682;32;20034;-68
2022/07/09 13:03:28;;;;;;;3.45;0.82;;;32.60;36.90;;;;;;11005964;32;20057;-70
2022/07/09 13:09:30;;;;;;;7.45;1.50;;;32.60;36.80;;;;;;11019138;32;20406;-69
2022/07/09 13:15:33;;;;;;;5.30;0.70;;;32.40;37.70;;;;;;11020286;32;20022;-67
2022/07/09 13:21:35;;;;;;;1.20;0.60;;;32.40;37.50;;;;;;11022001;32;20065;-69
2022/07/09 13:27:37;;;;;;;1.25;0.50;;;32.40;36.90;;;;;;11005000;32;20101;-69
2022/07/09 13:33:44;;;;;;;1.75;0.90;;;32.30;36.40;;;;;;11005227;32;20061;-67
2022/07/09 13:40:08;;;;;;;7.07;0.70;;;32.20;36.70;;;;;;11018617;32;20033;-70
2022/07/09 13:46:10;;;;;;;1.62;0.65;;;32.30;36.60;;;;;;11005713;32;20026;-67
2022/07/09 13:52:12;;;;;;;4.62;0.80;;;32.30;36.30;;;;;;11020584;32;20022;-68
2022/07/09 13:58:15;;;;;;;4.15;0.98;;;32.30;36.30;;;;;;11020105;32;20026;-69
2022/07/09 14:04:18;;;;;;;1.08;0.70;;;32.40;36.40;;;;;;11017414;32;20350;-69
2022/07/09 14:10:20;;;;;;;0.93;0.70;;;32.50;36.20;;;;;;11018821;32;20288;-67
2022/07/09 14:16:22;;;;;;;1.48;0.60;;;32.30;35.60;;;;;;11004523;32;20042;-69
2022/07/09 14:22:25;;;;;;;2.20;0.95;;;32.30;35.90;;;;;;11003835;32;20049;-69
2022/07/09 14:28:27;;;;;;;0.85;0.47;;;32.30;36.10;;;;;;11017126;32;20068;-69
2022/07/09 14:34:29;;;;;;;0.45;0.40;;;32.40;35.80;;;;;;11015774;32;20064;-68
2022/07/09 14:40:32;;;;;;;0.98;0.50;;;32.30;35.70;;;;;;11018610;32;20022;-69
2022/07/09 14:46:41;;;;;;;1.20;0.62;;;32.30;36.20;;;;;;11016063;32;20428;-70
2022/07/09 14:52:45;;;;;;;2.35;0.80;;;32.30;36.10;;;;;;11001076;32;20018;-68
2022/07/09 14:58:48;;;;;;;1.08;0.70;;;32.50;35.80;;;;;;11004975;32;20096;-68
2022/07/09 15:04:50;;;;;;;2.67;0.60;;;32.30;35.60;;;;;;11003534;32;20002;-70
2022/07/09 15:10:52;;;;;;;2.60;0.45;;;32.20;36.50;;;;;;10997100;32;20382;-70
2022/07/09 15:16:55;;;;;;;1.25;0.95;;;31.90;36.40;;;;;;10979816;32;20296;-69
2022/07/09 15:22:58;;;;;;;1.70;0.57;;;32.00;36.50;;;;;;10963297;32;20062;-69
2022/07/09 15:29:01;;;;;;;0.47;0.40;;;32.00;36.20;;;;;;10962036;32;20084;-70
2022/07/09 15:35:03;;;;;;;0.95;0.90;;;32.00;36.40;;;;;;10976551;32;20388;-69
2022/07/09 15:41:10;;;;;;;0.50;0.50;;;32.10;36.30;;;;;;10976349;32;20018;-69
2022/07/09 15:47:14;;;;;;;0.73;0.60;;;32.10;36.10;;;;;;10961514;32;20391;-69
2022/07/09 15:53:16;;;;;;;2.62;0.50;;;32.10;35.50;;;;;;10961702;32;20031;-70
2022/07/09 15:59:18;;;;;;;0.20;0.20;;;32.40;35.60;;;;;;10977571;32;20034;-69
2022/07/09 16:05:26;;;;;;;0.47;0.37;;;32.50;35.60;;;;;;10977318;32;20019;-70
2022/07/09 16:17:48;;;;;;;1.30;0.60;;;32.40;35.80;;;;;;10975484;32;19934;-69
2022/07/09 16:23:51;;;;;;;0.90;0.70;;;32.30;35.90;;;;;;10986963;32;20022;-70
2022/07/09 16:29:53;;;;;;;0.70;0.57;;;32.30;36.00;;;;;;10998707;32;20061;-71
2022/07/09 16:35:56;;;;;;;4.37;0.85;;;32.40;35.80;;;;;;10998928;32;20024;-69
2022/07/09 16:41:59;;;;;;;1.25;0.65;;;32.60;35.80;;;;;;10999048;32;20058;-69
2022/07/09 16:48:01;;;;;;;1.85;0.43;;;32.70;35.70;;;;;;10998366;32;20417;-71
2022/07/09 16:54:04;;;;;;;0.60;0.47;;;32.80;35.80;;;;;;11012683;32;20425;-70
2022/07/09 17:00:07;;;;;;;0.73;0.43;;;32.70;35.80;;;;;;11013947;32;20049;-71
2022/07/09 17:06:09;;;;;;;0.30;0.30;;;32.70;35.60;;;;;;11000524;32;20038;-70
2022/07/09 17:12:11;;;;;;;1.50;0.60;;;32.70;35.70;;;;;;11011902;32;20026;-71
2022/07/09 17:18:13;;;;;;;0.70;0.50;;;32.40;36.00;;;;;;11019271;32;20026;-71
2022/07/09 17:24:15;;;;;;;0.62;0.50;;;32.10;36.30;;;;;;11018826;32;20017;-71
2022/07/09 17:30:27;;;;;;;1.37;0.90;;;31.90;36.80;;;;;;11018493;32;20057;-71
2022/07/09 17:36:29;;;;;;;0.90;0.60;;;31.80;37.10;;;;;;11018305;32;20049;-71
2022/07/09 17:42:32;;;;;;;1.50;0.70;;;31.70;37.30;;;;;;11004585;32;20429;-71
2022/07/09 17:48:35;;;;;;;0.88;0.57;;;31.80;37.10;;;;;;11017649;32;20030;-71
2022/07/09 17:54:39;;;;;;;1.55;0.47;;;32.20;36.90;;;;;;11004240;32;20022;-71
2022/07/09 18:01:00;;;;;;;1.33;0.60;;;33.30;35.70;;;;;;11017288;32;20378;-71
2022/07/09 18:07:04;;;;;;;0.47;0.40;;;33.80;35.10;;;;;;11017099;32;20030;-71
2022/07/09 18:13:06;;;;;;;0.40;0.40;;;32.90;36.30;;;;;;11017035;32;20030;-71
2022/07/09 18:19:09;;;;;;;0.57;0.50;;;32.30;37.30;;;;;;11003303;32;20058;-71
2022/07/09 18:25:16;;;;;;;2.20;1.02;;;31.80;38.20;;;;;;11009775;32;20073;-71
2022/07/09 18:31:19;;;;;;;0.57;0.50;;;31.50;38.80;;;;;;10981231;32;20070;-71
2022/07/09 18:37:54;;;;;;;4.18;1.10;;;31.30;39.50;;;;;;10977918;32;20037;-71
2022/07/09 18:43:57;;;;;;;0.70;0.60;;;31.00;39.90;;;;;;10964447;32;20375;-71
2022/07/09 18:49:59;;;;;;;7.53;0.77;;;30.90;40.50;;;;;;10977829;32;20425;-71
2022/07/09 18:56:01;;;;;;;1.23;0.47;;;30.80;40.80;;;;;;10980569;32;20335;-71
2022/07/09 19:02:04;;;;;;;1.30;0.90;;;30.70;41.20;;;;;;10977126;32;20027;-71
2022/07/09 19:08:09;;;;;;;1.02;0.57;;;30.60;41.40;;;;;;10976910;32;20015;-71
2022/07/09 19:14:11;;;;;;;0.70;0.45;;;30.50;41.70;;;;;;10973094;32;20029;-71
2022/07/09 19:20:15;;;;;;;0.65;0.50;;;30.40;41.90;;;;;;10975651;32;20044;-71
2022/07/09 19:26:45;;;;;;;0.98;0.70;;;30.30;42.30;;;;;;10976247;32;20054;-71
2022/07/09 19:39:08;;;;;;;1.87;0.55;;;30.10;42.90;;;;;;10975952;32;20076;-71
2022/07/09 19:45:10;;;;;;;0.55;0.40;;;30.00;43.20;;;;;;10975739;32;20018;-71
2022/07/09 19:51:13;;;;;;;1.50;0.55;;;29.90;43.40;;;;;;10962230;32;20045;-70
2022/07/09 19:57:15;;;;;;;0.70;0.30;;;29.80;43.70;;;;;;10975433;32;20037;-70
2022/07/09 20:03:18;;;;;;;0.93;0.40;;;29.70;44.10;;;;;;10961712;32;20343;-71
2022/07/09 20:09:20;;;;;;;0.50;0.40;;;29.60;44.50;;;;;;10975044;32;20029;-70
2022/07/09 20:15:23;;;;;;;2.15;0.80;;;29.60;44.80;;;;;;10975196;32;20023;-70
2022/07/09 20:21:26;;;;;;;0.32;0.32;;;29.50;45.00;;;;;;10974910;32;20395;-70
2022/07/09 20:27:28;;;;;;;1.40;0.85;;;29.40;45.30;;;;;;10978655;27;20070;-71
2022/07/09 20:33:47;;;;;;;0.88;0.70;;;29.30;45.60;;;;;;10974989;32;20060;-70
2022/07/09 20:40:08;;;;;;;2.57;0.97;;;29.30;45.80;;;;;;10961299;32;20039;-70
2022/07/09 20:46:27;;;;;;;1.27;0.70;;;29.10;46.10;;;;;;10974565;32;20019;-70
2022/07/09 20:52:29;;;;;;;5.25;1.37;;;29.00;46.40;;;;;;10980671;32;20026;-70
2022/07/09 20:59:03;;;;;;;0.70;0.60;;;29.00;46.70;;;;;;10981703;32;20026;-70
2022/07/09 21:05:06;;;;;;;1.02;0.62;;;28.90;46.90;;;;;;10968257;32;20060;-70
2022/07/09 21:11:09;;;;;;;0.85;0.65;;;28.80;47.20;;;;;;10967790;32;20393;-70
2022/07/09 21:23:32;;;;;;;2.72;0.50;;;28.80;47.80;;;;;;10980776;32;20334;-70
2022/07/09 21:29:35;;;;;;;1.15;0.60;;;28.70;48.10;;;;;;10980591;32;20045;-70
2022/07/09 21:35:38;;;;;;;2.35;1.00;;;28.60;48.50;;;;;;10980552;32;20394;-70
2022/07/09 21:41:40;;;;;;;1.37;0.70;;;28.40;48.70;;;;;;10980517;32;20385;-70
2022/07/09 21:47:42;;;;;;;0.68;0.50;;;28.40;48.60;;;;;;10966633;32;20030;-70
2022/07/09 21:53:44;;;;;;;1.08;0.52;;;28.40;48.90;;;;;;10979850;32;20018;-70
2022/07/09 21:59:46;;;;;;;1.37;0.70;;;28.40;48.90;;;;;;10966065;32;20041;-68
2022/07/09 22:05:49;;;;;;;0.77;0.47;;;28.30;49.70;;;;;;10979546;32;20057;-69
2022/07/09 22:11:52;;;;;;;1.45;0.70;;;28.20;50.20;;;;;;10979104;32;20019;-70
2022/07/09 22:17:55;;;;;;;0.60;0.40;;;28.00;50.60;;;;;;10978901;32;20031;-70
2022/07/09 22:23:57;;;;;;;1.55;0.80;;;27.80;50.90;;;;;;10978877;32;20387;-70
2022/07/09 22:30:00;;;;;;;0.50;0.50;;;27.80;51.00;;;;;;10978354;32;20030;-70
2022/07/09 22:36:02;;;;;;;3.70;0.70;;;27.60;51.30;;;;;;10978326;32;20045;-70
2022/07/09 22:42:05;;;;;;;0.93;0.57;;;27.60;51.50;;;;;;10978090;32;20441;-70
2022/07/09 22:48:07;;;;;;;1.27;0.62;;;27.50;51.80;;;;;;10977763;32;20033;-70
2022/07/09 22:54:09;;;;;;;1.23;0.55;;;27.30;52.10;;;;;;10977720;32;20053;-70
2022/07/09 23:00:16;;;;;;;2.40;0.62;;;27.30;52.40;;;;;;10977505;32;20026;-70
2022/07/09 23:06:18;;;;;;;1.52;0.70;;;27.10;52.60;;;;;;10977283;32;20327;-70
2022/07/09 23:12:20;;;;;;;1.75;1.00;;;27.10;52.90;;;;;;10976609;32;20045;-70
2022/07/09 23:18:23;;;;;;;1.35;0.80;;;27.10;53.00;;;;;;10977029;32;20045;-70
2022/07/09 23:24:26;;;;;;;2.17;0.77;;;26.90;53.30;;;;;;10976854;32;20049;-70
2022/07/09 23:30:28;;;;;;;2.42;0.90;;;26.90;53.40;;;;;;10976770;32;20018;-70
2022/07/09 23:36:49;;;;;;;1.20;0.85;;;26.90;53.50;;;;;;10977700;32;20080;-70
2022/07/09 23:42:51;;;;;;;1.40;0.60;;;26.90;53.60;;;;;;10962641;32;20030;-70
2022/07/09 23:48:55;;;;;;;1.58;0.88;;;26.80;53.70;;;;;;10975854;32;20037;-70
2022/07/09 23:54:58;;;;;;;1.77;1.17;;;26.80;53.70;;;;;;10975850;32;20018;-70
